Tiempo atmosférico en la estación meteorológica de Cenicero, La Rioja (429 m.)



Fecha
DESCASC
Temp. máxima en grados centígrados (hora)
DESCASC
Temp. mínima en grados centígrados (hora)
DESCASC
Temp. media en grados centígrados
DESCASC
Racha de viento máxima en m/sg (hora)
DESCASC
Velocidad máxima media en intervalos de 10 minutos(hora)
DESCASC
Precipitaciones diarias en mm
DESCASC
Precipitaciones de 00:00 a 06:00 en mm
DESCASC
Precipitaciones de 06:00 a 12:00 en mm
DESCASC
Precipitaciones de 12:00 a 18:00 en mm
DESCASC
Precipitaciones de 18:00 a 24:00 en mm
DESCASC
23-05-2018 20.3 (17:40) 11.5 (05:20) 15.9 4.72 (17:10) 3.06 (00:30) 3 0 0 0.6 2.4
22-05-2018 25.3 (17:00) 10.5 (07:10) 17.9 6.67 (17:30) 3.61 (12:50) 0 0 0 0 0
21-05-2018 25.1 (15:50) 13.9 (07:30) 19.5 11.11 (18:00) 5.28 (18:00) 0.2 0.2 0 0 0
20-05-2018 25.5 (16:40) 9.6 (00:00) 17.6 11.39 (21:20) 6.39 (21:20) 2.8 0 0 0 2.8
19-05-2018 23.5 (17:50) 11.5 (00:00) 17.5 8.89 (13:30) 5 (19:10) 0 0 0 0 0
18-05-2018 23.5 (18:20) 11.4 (00:00) 17.4 7.22 (18:00) 4.17 (18:10) 0 0 0 0 0
17-05-2018 20.4 (18:40) 9.6 (00:00) 15 7.78 (03:20) 4.17 (03:20) 0 0 0 0 0
16-05-2018 21.4 (17:20) 7.9 (00:00) 14.6 8.61 (11:10) 4.17 (13:30) 0 0 0 0 0
15-05-2018 18.6 (14:40) 8.3 (00:00) 13.5 8.61 (10:20) 5.28 (10:20) 0 0 0 0 0
14-05-2018 15.8 (15:40) 7.9 (00:00) 11.9 9.17 (15:10) 5.56 (17:40) 1 1 0 0 0
13-05-2018 16.4 (17:50) 2.4 (00:00) 9.4 12.5 (17:20) 6.39 (18:40) 0 0 0 0 0
12-05-2018 16.7 (15:30) 7 (00:00) 11.9 10.83 (17:50) 5.56 (17:50) 1 0.4 0.2 0.2 0.2
11-05-2018 23.9 (17:30) 3.9 (07:10) 13.9 6.94 (23:40) 3.89 (13:10) 1.8 0 0 0 1.8
10-05-2018 18 (18:40) 10.2 (00:00) 14.1 10 (13:30) 5 (13:40) 0 0 0 0 0
09-05-2018 21.4 (16:30) 9.8 (00:00) 15.6 8.89 (19:50) 5 (19:50) 0 0 0 0 0
08-05-2018 20.7 (16:20) 13.3 (00:00) 17 8.89 (14:10) 5.28 (19:30) 0 0 0 0 0
07-05-2018 27.1 (16:10) 9.8 (00:00) 18.5 7.78 (16:20) 3.61 (16:30) 3.6 0 0 3 0.6
06-05-2018 25.9 (17:30) 7.5 (00:00) 16.7 6.39 (19:50) 3.33 (16:00) 0 0 0 0 0
05-05-2018 19.7 (17:30) 8.4 (00:00) 14.1 8.33 (11:20) 5 (11:50) 0 0 0 0 0
04-05-2018 15.5 (17:40) 6.9 (00:00) 11.2 10 (15:20) 5.83 (15:20) 0 0 0 0 0
03-05-2018 14.6 (16:50) 8.3 (00:00) 11.5 11.11 (16:20) 6.67 (16:20) 1 1 0 0 0
02-05-2018 17.2 (15:10) 4.6 (00:00) 10.9 11.94 (13:00) 6.94 (13:00) 0 0 0 0 0
01-05-2018 15.3 (17:20) 5.7 (06:10) 10.5 6.94 (16:30) 3.89 (15:10) 0 0 0 0 0
30-04-2018 13.4 (15:20) 4.6 (00:00) 9 10.83 (15:30) 6.39 (15:40) 0 0 0 0 0
29-04-2018 14.5 (16:50) 7.3 (00:00) 10.9 16.94 (19:20) 7.78 (18:50) 4.4 0 0 2.8 1.6
28-04-2018 15.9 (17:50) 8.7 (00:00) 12.3 8.33 (16:30) 5 (18:10) 0.8 0.6 0 0.2 0
27-04-2018 23.1 (16:20) 9.4 (00:00) 16.3 6.67 (19:00) 3.33 (17:40) 0 0 0 0 0
26-04-2018 19.9 (18:30) 10.6 (00:00) 15.3 7.22 (15:10) 4.17 (15:00) 0 0 0 0 0
25-04-2018 18.7 (14:20) 12.2 (00:00) 15.5 8.33 (19:10) 4.72 (20:10) 0 0 0 0 0
24-04-2018 25.1 (17:50) 9.6 (00:00) 17.4 9.44 (16:10) 5 (14:40) 0 0 0 0 0

Gráficas

Temp. máximas Temp. mínimas Temp. medias Precipitaciones Rachas de viento máximas Velocidades máximas media en intervalos de 10 minutos

Datos horarios

Fecha y hora oficial Temperatura (ºC) Velocidad del viento (km/h) Dirección del viento Racha (km/h) Dirección de racha Precipitación (mm) Presión (hPa) Tendencia (hPa) Humedad (%)
2018-05-23 23:00:00 16.4 0 Calma 5 Noroeste 0 -- -- 87
2018-05-23 22:00:00 16.9 2 Noroeste 7 Sur 0 -- -- 85
2018-05-23 21:00:00 17.9 4 Sur 13 Sudoeste 0 -- -- 80
2018-05-23 20:00:00 18.8 2 Este 8 Este 0.4 -- -- 74
2018-05-23 19:00:00 19.6 6 Este 17 Este 0 -- -- 63
2018-05-23 18:00:00 20.3 9 Este 17 Este 0 -- -- 60
2018-05-23 17:00:00 19.7 8 Este 15 Sudeste 0.2 -- -- 62
2018-05-23 16:00:00 17.9 6 Sur 13 Sudeste 0 -- -- 69
2018-05-23 15:00:00 16.3 5 Noroeste 12 Noroeste 0.4 -- -- 80
2018-05-23 14:00:00 17.3 4 Oeste 11 Oeste 0 -- -- 67
2018-05-23 13:00:00 17 7 Noroeste 15 Noroeste 0 -- -- 67
2018-05-23 12:00:00 17.1 5 Oeste 9 Oeste 0 -- -- 63
2018-05-23 11:00:00 15.3 3 Norte 5 Norte 0 -- -- 69
2018-05-23 10:00:00 14 2 Noroeste 4 Nordeste 0 -- -- 75
2018-05-23 09:00:00 13.1 0 Calma 4 Nordeste 0 -- -- 77
2018-05-23 08:00:00 12.4 2 Este 4 Este 0 -- -- 80
2018-05-23 07:00:00 11.6 0 Calma 4 Oeste 0 -- -- 84
2018-05-23 06:00:00 11.8 2 Oeste 5 Sudeste 0 -- -- 82
2018-05-23 05:00:00 11.7 0 Calma 3 Norte 0 -- -- 81
2018-05-23 04:00:00 12.2 0 Calma 6 Sudoeste 0 -- -- 77
2018-05-23 03:00:00 12.6 0 Calma 5 Oeste 0 -- -- 75
2018-05-23 02:00:00 13.7 0 Calma 8 Sudoeste 0 -- -- 72
2018-05-23 01:00:00 15.1 2 Noroeste 17 Sudoeste 0 -- -- 64
2018-05-23 00:00:00 16.1 9 Sudoeste 17 Sur 0 -- -- 60
2018-05-22 23:00:00 17.7 6 Sur 10 Sudoeste 0 -- -- 57
2018-05-22 22:00:00 19.3 3 Oeste 12 Noroeste 0 -- -- 50
2018-05-22 21:00:00 21.6 6 Norte 22 Noroeste 0 -- -- 43
2018-05-22 20:00:00 23 10 Norte 23 Norte 0 -- -- 38
2018-05-22 19:00:00 24.6 6 Norte 19 Noroeste 0 -- -- 35
2018-05-22 18:00:00 25.3 8 Noroeste 24 Noroeste 0 -- -- 32
2018-05-22 17:00:00 25.3 8 Noroeste 22 Oeste 0 -- -- 30
2018-05-22 16:00:00 25 6 Noroeste 23 Noroeste 0 -- -- 33
2018-05-22 15:00:00 23.7 8 Noroeste 21 Noroeste 0 -- -- 28
2018-05-22 14:00:00 23.5 10 Noroeste 21 Noroeste 0 -- -- 36
2018-05-22 13:00:00 22 9 Oeste 22 Noroeste 0 -- -- 44
2018-05-22 12:00:00 20.3 4 Noroeste 16 Oeste 0 -- -- 54
2018-05-22 11:00:00 18.5 8 Noroeste 15 Oeste 0 -- -- 66
2018-05-22 10:00:00 16.1 5 Noroeste 10 Oeste 0 -- -- 75
2018-05-22 09:00:00 13.3 4 Noroeste 10 Oeste 0 -- -- 82
2018-05-22 08:00:00 12 5 Oeste 9 Oeste 0 -- -- 87
2018-05-22 07:00:00 10.6 4 Noroeste 9 Oeste 0 -- -- 89
2018-05-22 06:00:00 10.9 0 Calma 5 Oeste 0 -- -- 88
2018-05-22 05:00:00 11.8 2 Nordeste 13 Sudoeste 0 -- -- 85
2018-05-22 04:00:00 12.6 4 Sudoeste 10 Sudoeste 0 -- -- 81
2018-05-22 03:00:00 13.1 5 Sudoeste 12 Sudoeste 0 -- -- 80
2018-05-22 02:00:00 14 8 Sudoeste 19 Sudoeste 0 -- -- 76
2018-05-22 01:00:00 15 6 Sur 15 Sudoeste 0 -- -- 74
2018-05-22 00:00:00 15.9 5 Sudoeste 9 Oeste 0 -- -- 72
2018-05-21 23:00:00 16.8 3 Oeste 7 Noroeste 0 -- -- 68
2018-05-21 22:00:00 18 4 Oeste 23 Oeste 0 -- -- 63
2018-05-21 21:00:00 19 11 Oeste 25 Oeste 0 -- -- 56
2018-05-21 20:00:00 20.9 3 Sudeste 16 Sudeste 0 -- -- 45
2018-05-21 19:00:00 22.2 7 Nordeste 34 Norte 0 -- -- 38
2018-05-21 18:00:00 21 19 Norte 40 Norte 0 -- -- 45
2018-05-21 17:00:00 23.1 8 Noroeste 16 Noroeste 0 -- -- 40
2018-05-21 16:00:00 25 8 Oeste 18 Oeste 0 -- -- 39
2018-05-21 15:00:00 22.9 9 Sur 22 Este 0 -- -- 46
2018-05-21 14:00:00 22 10 Este 27 Sudeste 0 -- -- 54
2018-05-21 13:00:00 21.3 10 Este 24 Este 0 -- -- 57
2018-05-21 12:00:00 19.9 9 Este 18 Este 0 -- -- 64
2018-05-21 11:00:00 18 9 Este 19 Este 0 -- -- 73
2018-05-21 10:00:00 16.1 12 Este 20 Sudeste 0 -- -- 77
2018-05-21 09:00:00 15.8 8 Este 14 Este 0 -- -- 80
2018-05-21 08:00:00 14.4 7 Este 13 Sudeste 0 -- -- 86
2018-05-21 07:00:00 14.2 6 Este 15 Este 0 -- -- 86
2018-05-21 06:00:00 14.4 3 Sudeste 10 Este 0 -- -- 87
2018-05-21 05:00:00 14.4 2 Nordeste 6 Este 0 -- -- 90
2018-05-21 04:00:00 14.5 3 Este 8 Este 0 -- -- 91
2018-05-21 03:00:00 14.7 0 Calma 4 Este 0 -- -- 92
2018-05-21 02:00:00 14.9 3 Oeste 6 Este 0 -- -- 91
2018-05-21 01:00:00 15 2 Oeste 6 Sur 0.2 -- -- 89
2018-05-21 00:00:00 15.6 3 Sudeste 5 Nordeste 1.2 -- -- 81
2018-05-20 23:00:00 16 3 Nordeste 27 Este 1.6 -- -- 80
2018-05-20 22:00:00 17.7 16 Este 41 Este 0 -- -- 70
2018-05-20 21:00:00 21.5 5 Nordeste 21 Este 0 -- -- 50
2018-05-20 20:00:00 23.5 10 Nordeste 21 Este 0 -- -- 42
2018-05-20 19:00:00 23.8 9 Nordeste 22 Este 0 -- -- 40
2018-05-20 18:00:00 24.4 9 Nordeste 21 Este 0 -- -- 35
2018-05-20 17:00:00 25.1 9 Este 19 Este 0 -- -- 30
2018-05-20 16:00:00 24.3 9 Nordeste 18 Nordeste 0 -- -- 30
2018-05-20 15:00:00 23 5 Este 21 Sudeste 0 -- -- 40
2018-05-20 14:00:00 22 3 Sudoeste 12 Este 0 -- -- 40
2018-05-20 13:00:00 20.9 4 Sudeste 12 Nordeste 0 -- -- 40
2018-05-20 12:00:00 18.8 5 Noroeste 14 Noroeste 0 -- -- 46
2018-05-20 11:00:00 16.8 7 Oeste 18 Oeste 0 -- -- 55
2018-05-20 10:00:00 14.5 11 Oeste 17 Oeste 0 -- -- 67
2018-05-20 09:00:00 12.1 3 Noroeste 9 Norte 0 -- -- 76
2018-05-20 08:00:00 10.4 3 Noroeste 13 Sudoeste 0 -- -- 81
2018-05-20 07:00:00 9.6 4 Sudoeste 14 Oeste 0 -- -- 83
2018-05-20 06:00:00 10.6 6 Sudoeste 14 Oeste 0 -- -- 80
2018-05-20 05:00:00 10.9 6 Sudoeste 12 Sudoeste 0 -- -- 80
2018-05-20 04:00:00 11.6 7 Sudoeste 12 Sudoeste 0 -- -- 79
2018-05-20 03:00:00 12.3 6 Sudoeste 12 Sudoeste 0 -- -- 77
2018-05-20 02:00:00 12.8 5 Sudoeste 17 Sur 0 -- -- 75
2018-05-20 01:00:00 13.5 8 Sudoeste 18 Sur 0 -- -- 73
2018-05-20 00:00:00 14.6 6 Sur 19 Sudoeste 0 -- -- 67
2018-05-19 23:00:00 16.5 9 Oeste 18 Norte 0 -- -- 55
2018-05-19 22:00:00 17.7 11 Norte 30 Nordeste 0 -- -- 49
2018-05-19 21:00:00 19.2 15 Norte 29 Norte 0 -- -- 50
2018-05-19 20:00:00 21.1 11 Norte 28 Norte 0 -- -- 46
2018-05-19 19:00:00 22.1 16 Norte 28 Norte 0 -- -- 43
2018-05-19 18:00:00 23 12 Norte 28 Norte 0 -- -- 39
2018-05-19 17:00:00 22 11 Norte 25 Norte 0 -- -- 45
2018-05-19 16:00:00 21.9 9 Norte 21 Norte 0 -- -- 47
2018-05-19 15:00:00 21.1 6 Sur 16 Este 0 -- -- 52
2018-05-19 14:00:00 21.5 8 Norte 32 Oeste 0 -- -- 52
2018-05-19 13:00:00 22.7 9 Sudoeste 19 Oeste 0 -- -- 47
2018-05-19 12:00:00 20.7 8 Oeste 18 Oeste 0 -- -- 54
2018-05-19 11:00:00 18.6 9 Oeste 19 Sudoeste 0 -- -- 61
2018-05-19 10:00:00 17.1 12 Oeste 21 Oeste 0 -- -- 67
2018-05-19 09:00:00 14.9 9 Oeste 16 Oeste 0 -- -- 74
2018-05-19 08:00:00 12.7 6 Oeste 14 Oeste 0 -- -- 84
2018-05-19 07:00:00 11.6 3 Oeste 15 Oeste 0 -- -- 87
2018-05-19 06:00:00 12.8 8 Oeste 14 Oeste 0 -- -- 83
2018-05-19 05:00:00 12.8 8 Oeste 16 Oeste 0 -- -- 83
2018-05-19 04:00:00 12.8 6 Sudoeste 19 Sudoeste 0 -- -- 84
2018-05-19 03:00:00 13.2 5 Sur 19 Sudoeste 0 -- -- 82
2018-05-19 02:00:00 13.7 7 Sur 17 Sur 0 -- -- 80
2018-05-19 01:00:00 14.7 10 Sudoeste 18 Sudoeste 0 -- -- 76
2018-05-19 00:00:00 15.9 5 Sudoeste 18 Sudoeste 0 -- -- 71
2018-05-18 23:00:00 17.3 8 Sudoeste 15 Sudoeste 0 -- -- 65
2018-05-18 22:00:00 18.5 6 Oeste 22 Norte 0 -- -- 60
2018-05-18 21:00:00 19.9 12 Norte 24 Norte 0 -- -- 55
2018-05-18 20:00:00 21.8 9 Norte 20 Oeste 0 -- -- 51
2018-05-18 19:00:00 22.7 9 Noroeste 26 Oeste 0 -- -- 47
2018-05-18 18:00:00 23.2 15 Oeste 26 Oeste 0 -- -- 47
2018-05-18 17:00:00 23 9 Noroeste 25 Oeste 0 -- -- 47
2018-05-18 16:00:00 22.4 12 Oeste 24 Oeste 0 -- -- 47
2018-05-18 15:00:00 21.4 9 Oeste 20 Oeste 0 -- -- 48
2018-05-18 14:00:00 19.5 11 Oeste 19 Sudoeste 0 -- -- 55
2018-05-18 13:00:00 19.6 9 Sudoeste 18 Sudoeste 0 -- -- 55
2018-05-18 12:00:00 17.5 8 Oeste 16 Oeste 0 -- -- 61
2018-05-18 11:00:00 15.7 8 Oeste 18 Sudoeste 0 -- -- 67
2018-05-18 10:00:00 14.3 7 Oeste 14 Sudoeste 0 -- -- 74
2018-05-18 09:00:00 12.6 2 Oeste 4 Noroeste 0 -- -- 85
2018-05-18 08:00:00 11.6 0 Calma 3 Este 0 -- -- 87
2018-05-18 07:00:00 11.5 0 Calma 6 Sudoeste 0 -- -- 87
2018-05-18 06:00:00 11.5 3 Oeste 5 Oeste 0 -- -- 87
2018-05-18 05:00:00 11.5 0 Calma 5 Oeste 0 -- -- 87
2018-05-18 04:00:00 11.9 0 Calma 9 Oeste 0 -- -- 84
2018-05-18 03:00:00 12.5 3 Oeste 15 Oeste 0 -- -- 81
2018-05-18 02:00:00 12.9 8 Oeste 21 Oeste 0 -- -- 80
2018-05-18 01:00:00 13.3 11 Sudoeste 22 Sudoeste 0 -- -- 77
2018-05-18 00:00:00 13.9 12 Sudoeste 24 Oeste 0 -- -- 74
2018-05-17 23:00:00 14.3 11 Oeste 22 Sudoeste 0 -- -- 72
2018-05-17 22:00:00 15 10 Sudoeste 20 Oeste 0 -- -- 69
2018-05-17 21:00:00 16.4 14 Oeste 22 Oeste 0 -- -- 63
2018-05-17 20:00:00 19.1 8 Noroeste 18 Oeste 0 -- -- 54
2018-05-17 19:00:00 20.4 9 Oeste 18 Sudoeste 0 -- -- 51
2018-05-17 18:00:00 19.6 6 Sudoeste 17 Sur 0 -- -- 54
2018-05-17 17:00:00 18.7 8 Sudoeste 18 Oeste 0 -- -- 55
2018-05-17 16:00:00 18.8 10 Oeste 22 Oeste 0 -- -- 53
2018-05-17 15:00:00 19.4 7 Oeste 17 Oeste 0 -- -- 50
2018-05-17 14:00:00 18.8 7 Oeste 15 Noroeste 0 -- -- 52
2018-05-17 13:00:00 18.2 4 Nordeste 18 Oeste 0 -- -- 52
2018-05-17 12:00:00 16.9 4 Noroeste 16 Oeste 0 -- -- 57
2018-05-17 11:00:00 16.2 5 Oeste 18 Sudoeste 0 -- -- 59
2018-05-17 10:00:00 13.5 11 Oeste 24 Oeste 0 -- -- 69
2018-05-17 09:00:00 12.3 11 Oeste 24 Sudoeste 0 -- -- 74
2018-05-17 08:00:00 10.7 8 Oeste 15 Sudoeste 0 -- -- 80
2018-05-17 07:00:00 9.6 6 Sudoeste 14 Oeste 0 -- -- 82
2018-05-17 06:00:00 9.9 8 Oeste 18 Oeste 0 -- -- 80
2018-05-17 05:00:00 10.1 10 Sudoeste 26 Oeste 0 -- -- 81
2018-05-17 04:00:00 10.2 15 Oeste 28 Sudoeste 0 -- -- 81
2018-05-17 03:00:00 10.8 13 Oeste 27 Oeste 0 -- -- 80
2018-05-17 02:00:00 11.5 11 Oeste 21 Oeste 0 -- -- 78
2018-05-17 01:00:00 11.9 9 Oeste 19 Sudoeste 0 -- -- 77
2018-05-17 00:00:00 12.7 9 Sudoeste 18 Oeste 0 -- -- 74
2018-05-16 23:00:00 13.2 6 Oeste 21 Sudoeste 0 -- -- 72
2018-05-16 22:00:00 14.2 9 Oeste 19 Oeste 0 -- -- 68
2018-05-16 21:00:00 16.5 10 Oeste 19 Oeste 0 -- -- 59
2018-05-16 20:00:00 18.1 9 Oeste 24 Oeste 0 -- -- 54
2018-05-16 19:00:00 19.4 14 Oeste 23 Oeste 0 -- -- 51
2018-05-16 18:00:00 21.2 10 Oeste 21 Sudoeste 0 -- -- 46
2018-05-16 17:00:00 21.3 9 Sudoeste 21 Oeste 0 -- -- 45
2018-05-16 16:00:00 20.3 10 Oeste 22 Oeste 0 -- -- 48
2018-05-16 15:00:00 18.9 12 Oeste 27 Oeste 0 -- -- 50
2018-05-16 14:00:00 17.9 15 Oeste 27 Sudoeste 0 -- -- 54
2018-05-16 13:00:00 17.4 13 Oeste 26 Oeste 0 -- -- 54
2018-05-16 12:00:00 15.9 13 Oeste 31 Sudoeste 0 -- -- 57
2018-05-16 11:00:00 14.7 12 Oeste 27 Oeste 0 -- -- 61
2018-05-16 10:00:00 13.4 11 Oeste 24 Oeste 0 -- -- 63
2018-05-16 09:00:00 11.9 10 Oeste 19 Sudoeste 0 -- -- 64
2018-05-16 08:00:00 9.4 3 Noroeste 24 Sudoeste 0 -- -- 72
2018-05-16 07:00:00 8 10 Sudoeste 22 Sudoeste 0 -- -- 74
2018-05-16 06:00:00 7.9 11 Sudoeste 21 Sudoeste 0 -- -- 75
2018-05-16 05:00:00 8.2 8 Sudoeste 18 Sudoeste 0 -- -- 76
2018-05-16 04:00:00 8.7 9 Sudoeste 22 Sudoeste 0 -- -- 77
2018-05-16 03:00:00 9.1 9 Sudoeste 23 Oeste 0 -- -- 75
2018-05-16 02:00:00 9.8 11 Sudoeste 27 Sudoeste 0 -- -- 71
2018-05-16 01:00:00 10.6 12 Sudoeste 22 Sudoeste 0 -- -- 63
2018-05-16 00:00:00 11.5 14 Oeste 26 Sudoeste 0 -- -- 53
2018-05-15 23:00:00 12.1 12 Oeste 22 Oeste 0 -- -- 55
2018-05-15 22:00:00 13 6 Oeste 14 Noroeste 0 -- -- 54
2018-05-15 21:00:00 14.5 6 Oeste 24 Noroeste 0 -- -- 53
2018-05-15 20:00:00 15.7 10 Norte 24 Norte 0 -- -- 50
2018-05-15 19:00:00 16.4 13 Norte 26 Norte 0 -- -- 52
2018-05-15 18:00:00 16.9 9 Norte 25 Nordeste 0 -- -- 50
2018-05-15 17:00:00 17.4 9 Norte 25 Norte 0 -- -- 49
2018-05-15 16:00:00 18.1 10 Norte 25 Norte 0 -- -- 46
2018-05-15 15:00:00 17.9 10 Noroeste 22 Noroeste 0 -- -- 44
2018-05-15 14:00:00 17 8 Noroeste 23 Oeste 0 -- -- 46
2018-05-15 13:00:00 15.8 11 Noroeste 26 Oeste 0 -- -- 46
2018-05-15 12:00:00 14.1 16 Oeste 29 Oeste 0 -- -- 50
2018-05-15 11:00:00 11.9 16 Oeste 31 Oeste 0 -- -- 57
2018-05-15 10:00:00 10.1 17 Oeste 28 Oeste 0 -- -- 62
2018-05-15 09:00:00 9.3 13 Oeste 26 Oeste 0 -- -- 67
2018-05-15 08:00:00 8.6 13 Oeste 27 Oeste 0 -- -- 70
2018-05-15 07:00:00 8.4 12 Oeste 24 Oeste 0 -- -- 71
2018-05-15 06:00:00 8.4 12 Oeste 25 Oeste 0 -- -- 71
2018-05-15 05:00:00 8.8 12 Oeste 23 Noroeste 0 -- -- 69
2018-05-15 04:00:00 8.6 10 Noroeste 26 Noroeste 0 -- -- 71
2018-05-15 03:00:00 8.9 11 Noroeste 23 Oeste 0 -- -- 68
2018-05-15 02:00:00 9.2 12 Oeste 22 Noroeste 0 -- -- 68
2018-05-15 01:00:00 9.4 14 Noroeste 26 Noroeste 0 -- -- 69
2018-05-15 00:00:00 9.7 10 Noroeste 18 Oeste 0 -- -- 66
2018-05-14 23:00:00 10.3 9 Oeste 20 Noroeste 0 -- -- 62
2018-05-14 22:00:00 11 10 Noroeste 25 Noroeste 0 -- -- 59
2018-05-14 21:00:00 12.3 18 Noroeste 33 Noroeste 0 -- -- 54
2018-05-14 20:00:00 13.6 10 Noroeste 33 Noroeste 0 -- -- 48
2018-05-14 19:00:00 13.9 17 Noroeste 32 Noroeste 0 -- -- 46
2018-05-14 18:00:00 14.4 12 Norte 31 Noroeste 0 -- -- 47
2018-05-14 17:00:00 15.1 16 Noroeste 31 Noroeste 0 -- -- 46
2018-05-14 16:00:00 15.6 15 Noroeste 33 Noroeste 0 -- -- 42
2018-05-14 15:00:00 15.3 15 Noroeste 29 Noroeste 0 -- -- 45
2018-05-14 14:00:00 15.1 12 Noroeste 31 Noroeste 0 -- -- 47
2018-05-14 13:00:00 12.6 13 Noroeste 30 Noroeste 0 -- -- 58
2018-05-14 12:00:00 12.4 13 Noroeste 26 Noroeste 0 -- -- 69
2018-05-14 11:00:00 11.7 10 Noroeste 23 Oeste 0 -- -- 71
2018-05-14 10:00:00 10.3 10 Noroeste 20 Oeste 0 -- -- 75
2018-05-14 09:00:00 9.4 11 Oeste 18 Oeste 0 -- -- 83
2018-05-14 08:00:00 8.3 9 Oeste 16 Oeste 0 -- -- 87
2018-05-14 07:00:00 8 9 Oeste 18 Sudoeste 0 -- -- 88
2018-05-14 06:00:00 8 7 Oeste 16 Oeste 0 -- -- 91
2018-05-14 05:00:00 8.1 6 Oeste 15 Oeste 0.2 -- -- 90
2018-05-14 04:00:00 8.2 7 Oeste 17 Oeste 0.2 -- -- 90
2018-05-14 03:00:00 8.3 10 Oeste 20 Oeste 0 -- -- 88
2018-05-14 02:00:00 8.4 10 Oeste 21 Sudoeste 0.2 -- -- 86
2018-05-14 01:00:00 8.7 9 Oeste 22 Oeste 0.4 -- -- 84
2018-05-11 20:00:00 -- -- -- -- -- -- -- -- --
2018-05-11 19:00:00 23.2 7 Este 13 Este 0 -- -- 40
2018-05-11 18:00:00 23.6 2 Sudoeste 13 Este 0 -- -- 39
2018-05-11 17:00:00 23.1 6 Este 19 Este 0 -- -- 39
2018-05-11 16:00:00 22.5 10 Este 22 Este 0 -- -- 40
2018-05-11 15:00:00 21.2 13 Este 24 Sudeste 0 -- -- 42
2018-05-11 14:00:00 19.7 13 Este 24 Sudeste 0 -- -- 45
2018-05-11 13:00:00 17.7 12 Este 24 Sudeste 0 -- -- 50
2018-05-11 12:00:00 15.7 10 Este 22 Sudeste 0 -- -- 54
2018-05-11 11:00:00 13.8 7 Este 19 Este 0 -- -- 59
2018-05-11 10:00:00 10.7 6 Este 12 Este 0 -- -- 71
2018-05-11 09:00:00 7.1 2 Noroeste 4 Oeste 0 -- -- 84
2018-05-11 08:00:00 4.5 2 Norte 5 Oeste 0 -- -- 92
2018-05-11 07:00:00 4 3 Sudoeste 4 Sudoeste 0 -- -- 91
2018-05-11 06:00:00 4.5 0 Calma 2 Este 0 -- -- 90
2018-05-11 05:00:00 5.1 0 Calma 4 Oeste 0 -- -- 89
2018-05-11 04:00:00 6 3 Oeste 4 Oeste 0 -- -- 87
2018-05-11 03:00:00 6.7 3 Oeste 5 Sudoeste 0 -- -- 80
2018-05-11 02:00:00 7.9 0 Calma 9 Sur 0 -- -- 76
2018-05-11 01:00:00 9.5 4 Sur 15 Sudoeste 0 -- -- 71
2018-05-11 00:00:00 10.2 2 Este 9 Sur 0 -- -- 66
2018-05-10 23:00:00 11.3 4 Sur 8 Sudoeste 0 -- -- 62
2018-05-10 22:00:00 12.9 3 Oeste 10 Oeste 0 -- -- 57
2018-05-10 21:00:00 15.1 7 Oeste 14 Norte 0 -- -- 48
2018-05-10 20:00:00 16.3 8 Noroeste 19 Noroeste 0 -- -- 43
2018-05-10 19:00:00 17.4 9 Noroeste 19 Oeste 0 -- -- 42
2018-05-10 18:00:00 17.6 9 Norte 27 Nordeste 0 -- -- 43
2018-05-10 17:00:00 16.3 6 Noroeste 21 Nordeste 0 -- -- 49
2018-05-10 16:00:00 15.7 8 Norte 22 Nordeste 0 -- -- 52
2018-05-10 15:00:00 15.9 8 Norte 28 Noroeste 0 -- -- 53
2018-05-10 14:00:00 14.5 14 Norte 36 Noroeste 0 -- -- 56
2018-05-10 13:00:00 14 14 Noroeste 31 Noroeste 0 -- -- 64
2018-05-10 12:00:00 13 14 Noroeste 27 Oeste 0 -- -- 76
2018-05-10 11:00:00 13.6 8 Oeste 17 Oeste 0 -- -- 67
2018-05-10 10:00:00 12.4 6 Oeste 18 Oeste 0 -- -- 71
2018-05-10 09:00:00 11.7 11 Oeste 21 Oeste 0 -- -- 71
2018-05-10 08:00:00 11.1 10 Oeste 19 Sudoeste 0 -- -- 72
2018-05-10 07:00:00 10.9 12 Oeste 21 Oeste 0 -- -- 70
2018-05-10 06:00:00 10.6 12 Oeste 26 Noroeste 0 -- -- 70
2018-05-10 05:00:00 11.2 14 Noroeste 28 Oeste 0 -- -- 65
2018-05-10 04:00:00 11.8 16 Oeste 29 Oeste 0 -- -- 75
2018-05-10 03:00:00 12.1 8 Oeste 22 Oeste 0 -- -- 77
2018-05-10 02:00:00 12.4 14 Oeste 24 Oeste 0 -- -- 75
2018-05-10 01:00:00 13 4 Oeste 17 Noroeste 0 -- -- 74
2018-05-10 00:00:00 13.6 2 Noroeste 24 Oeste 0 -- -- 73
2018-05-09 23:00:00 14.4 8 Oeste 16 Oeste 0 -- -- 71
2018-05-09 22:00:00 14.9 7 Noroeste 15 Nordeste 0 -- -- 68
2018-05-09 21:00:00 15.8 7 Noroeste 30 Norte 0 -- -- 64
2018-05-09 20:00:00 16.7 15 Norte 32 Norte 0 -- -- 58
2018-05-09 19:00:00 18.7 13 Norte 28 Norte 0 -- -- 54
2018-05-09 18:00:00 20.9 10 Noroeste 25 Norte 0 -- -- 45
2018-05-09 17:00:00 21.1 12 Noroeste 26 Noroeste 0 -- -- 48
2018-05-09 16:00:00 20.2 13 Noroeste 24 Noroeste 0 -- -- 50
2018-05-09 15:00:00 20 7 Noroeste 22 Oeste 0 -- -- 54
2018-05-09 14:00:00 19.1 6 Oeste 21 Oeste 0 -- -- 55
2018-05-09 13:00:00 17.5 5 Oeste 18 Oeste 0 -- -- 58
2018-05-09 12:00:00 15.8 9 Oeste 19 Noroeste 0 -- -- 66
2018-05-09 11:00:00 14.2 11 Oeste 20 Oeste 0 -- -- 69
2018-05-09 10:00:00 13.2 7 Oeste 18 Oeste 0 -- -- 69
2018-05-09 09:00:00 12.5 8 Sudoeste 16 Oeste 0 -- -- 71
2018-05-09 08:00:00 11.3 7 Sudoeste 18 Sudoeste 0 -- -- 77
2018-05-09 07:00:00 9.8 8 Sudoeste 18 Sudoeste 0 -- -- 80
2018-05-09 06:00:00 10.1 9 Oeste 23 Oeste 0 -- -- 75
2018-05-09 05:00:00 10.2 12 Oeste 21 Oeste 0 -- -- 78
2018-05-09 04:00:00 11.4 11 Oeste 20 Oeste 0 -- -- 79
2018-05-09 03:00:00 12.2 8 Oeste 17 Oeste 0 -- -- 81
2018-05-09 02:00:00 12.6 10 Noroeste 20 Oeste 0 -- -- 82
2018-05-09 01:00:00 12.9 9 Oeste 15 Oeste 0 -- -- 84
2018-05-09 00:00:00 13.4 8 Oeste 15 Oeste 0 -- -- 80
2018-05-08 23:00:00 13.9 9 Oeste 17 Oeste 0 -- -- 78
2018-05-08 22:00:00 14.4 7 Oeste 17 Oeste 0 -- -- 76
2018-05-08 21:00:00 15 11 Noroeste 21 Noroeste 0 -- -- 74
2018-05-08 20:00:00 15.3 12 Noroeste 31 Noroeste 0 -- -- 76
2018-05-08 19:00:00 17.6 11 Noroeste 28 Noroeste 0 -- -- 69
2018-05-08 18:00:00 19.2 13 Norte 28 Norte 0 -- -- 59
2018-05-08 17:00:00 19.9 13 Noroeste 22 Oeste 0 -- -- 59
2018-05-08 16:00:00 20.3 7 Oeste 22 Noroeste 0 -- -- 60
2018-05-08 15:00:00 19.4 9 Noroeste 32 Oeste 0 -- -- 62
2018-05-08 14:00:00 20.1 17 Noroeste 29 Oeste 0 -- -- 66
2018-05-08 13:00:00 19.5 13 Oeste 25 Oeste 0 -- -- 66
2018-05-08 12:00:00 19.4 5 Noroeste 14 Oeste 0 -- -- 63
2018-05-08 11:00:00 19.8 7 Oeste 14 Oeste 0 -- -- 63
2018-05-08 10:00:00 17.8 7 Oeste 17 Sudoeste 0 -- -- 73
2018-05-08 09:00:00 16.2 9 Oeste 20 Sudoeste 0 -- -- 81
2018-05-08 08:00:00 14.4 8 Oeste 17 Oeste 0 -- -- 87
2018-05-08 07:00:00 13.4 6 Sudoeste 12 Sudoeste 0 -- -- 90
2018-05-08 06:00:00 13.4 0 Calma 4 Noroeste 0 -- -- 92
2018-05-08 05:00:00 13.7 4 Noroeste 8 Noroeste 0 -- -- 92
2018-05-08 04:00:00 14.9 2 Oeste 6 Oeste 0 -- -- 90
2018-05-08 03:00:00 15.7 3 Sudoeste 6 Noroeste 0 -- -- 88
2018-05-08 02:00:00 16.4 4 Oeste 9 Sur 0 -- -- 88
2018-05-08 01:00:00 17.7 0 Calma 8 Oeste 0 -- -- 83
2018-05-08 00:00:00 19.2 2 Este 18 Este 0.2 -- -- 75
2018-05-07 23:00:00 20.1 4 Sudeste 14 Este 0 -- -- 69
2018-05-07 22:00:00 20.6 3 Sur 7 Sudoeste 0 -- -- 66
2018-05-07 21:00:00 21.3 0 Calma 6 Oeste 0 -- -- 69
2018-05-07 20:00:00 21.7 2 Oeste 6 Noroeste 0 -- -- 70
2018-05-07 19:00:00 21 3 Este 14 Nordeste 0.4 -- -- 69
2018-05-07 18:00:00 20.2 10 Este 25 Nordeste 3 -- -- 75
2018-05-07 17:00:00 26.4 12 Noroeste 28 Noroeste 0 -- -- 40
2018-05-07 16:00:00 26.8 3 Oeste 20 Nordeste 0 -- -- 37
2018-05-07 15:00:00 26 4 Sur 10 Oeste 0 -- -- 40
2018-05-07 14:00:00 24.4 7 Noroeste 15 Oeste 0 -- -- 46
2018-05-07 13:00:00 23.4 8 Noroeste 15 Noroeste 0 -- -- 47
2018-05-07 12:00:00 20.7 6 Noroeste 12 Noroeste 0 -- -- 54
2018-05-07 11:00:00 17.2 5 Noroeste 9 Noroeste 0 -- -- 62
2018-05-07 10:00:00 14.9 4 Noroeste 11 Noroeste 0 -- -- 69
2018-05-07 09:00:00 12.3 4 Norte 8 Norte 0 -- -- 79
2018-05-07 08:00:00 10.1 4 Oeste 9 Oeste 0 -- -- 87
2018-05-07 07:00:00 9.9 3 Oeste 6 Oeste 0 -- -- 88
2018-05-07 06:00:00 10.6 3 Sudoeste 5 Sudoeste 0 -- -- 84
2018-05-07 05:00:00 11.1 2 Oeste 6 Oeste 0 -- -- 82
2018-05-07 04:00:00 12.3 3 Oeste 4 Sudoeste 0 -- -- 78
2018-05-07 03:00:00 13.3 3 Oeste 5 Sudoeste 0 -- -- 72
2018-05-07 02:00:00 14.3 2 Sur 8 Oeste 0 -- -- 67
2018-05-07 01:00:00 15.4 5 Oeste 8 Oeste 0 -- -- 64
2018-05-07 00:00:00 16.9 4 Sudoeste 8 Sudoeste 0 -- -- 58
2018-05-06 23:00:00 18.8 0 Calma 6 Este 0 -- -- 52
2018-05-06 22:00:00 21.3 0 Calma 17 Sudeste 0 -- -- 43
2018-05-06 21:00:00 23.3 7 Sudeste 18 Este 0 -- -- 36
2018-05-06 20:00:00 24.8 9 Este 23 Este 0 -- -- 32
2018-05-06 19:00:00 25.7 8 Este 22 Este 0 -- -- 31
2018-05-06 18:00:00 25.7 11 Este 21 Este 0 -- -- 32
2018-05-06 17:00:00 25.5 8 Este 22 Este 0 -- -- 30
2018-05-06 16:00:00 25.1 12 Este 22 Este 0 -- -- 33
2018-05-06 15:00:00 23.5 9 Este 20 Este 0 -- -- 37
2018-05-06 14:00:00 22.3 8 Este 17 Sudeste 0 -- -- 45
2018-05-06 13:00:00 20.5 6 Este 13 Nordeste 0 -- -- 48
2018-05-06 12:00:00 18.1 4 Sudoeste 12 Oeste 0 -- -- 53
2018-05-06 11:00:00 15.2 4 Noroeste 13 Oeste 0 -- -- 62
2018-05-06 10:00:00 12.6 4 Noroeste 9 Noroeste 0 -- -- 73
2018-05-06 09:00:00 9.9 5 Noroeste 9 Noroeste 0 -- -- 84
2018-05-06 08:00:00 7.8 4 Noroeste 7 Oeste 0 -- -- 91
2018-05-06 07:00:00 7.7 3 Oeste 9 Noroeste 0 -- -- 90
2018-05-06 06:00:00 8.3 4 Noroeste 10 Sudoeste 0 -- -- 88
2018-05-06 05:00:00 8.7 3 Oeste 6 Oeste 0 -- -- 86
2018-05-06 04:00:00 9.8 0 Calma 9 Oeste 0 -- -- 80
2018-05-06 03:00:00 10.7 4 Sudoeste 10 Sudoeste 0 -- -- 78
2018-05-06 02:00:00 11.5 5 Sudoeste 13 Sudoeste 0 -- -- 76
2018-05-06 01:00:00 12.1 6 Sudoeste 13 Sur 0 -- -- 75
2018-05-06 00:00:00 13 3 Sudoeste 9 Sudoeste 0 -- -- 73
2018-05-05 23:00:00 14.2 5 Sur 13 Sudoeste 0 -- -- 70
2018-05-05 22:00:00 15.7 6 Sudoeste 12 Sudoeste 0 -- -- 63
2018-05-05 21:00:00 17.7 5 Oeste 12 Norte 0 -- -- 56
2018-05-05 20:00:00 18.3 7 Norte 18 Norte 0 -- -- 53
2018-05-05 19:00:00 18.8 10 Norte 22 Norte 0 -- -- 53
2018-05-05 18:00:00 19.4 6 Norte 13 Oeste 0 -- -- 51
2018-05-05 17:00:00 19.1 7 Sudoeste 17 Sudoeste 0 -- -- 50
2018-05-05 16:00:00 19.1 4 Oeste 19 Noroeste 0 -- -- 49
2018-05-05 15:00:00 18.5 7 Norte 18 Noroeste 0 -- -- 50
2018-05-05 14:00:00 18.9 7 Noroeste 26 Oeste 0 -- -- 48
2018-05-05 13:00:00 16.7 15 Oeste 28 Oeste 0 -- -- 53
2018-05-05 12:00:00 14.6 16 Oeste 30 Oeste 0 -- -- 59
2018-05-05 11:00:00 13.1 15 Oeste 27 Oeste 0 -- -- 65
2018-05-05 10:00:00 11.4 13 Oeste 27 Oeste 0 -- -- 70
2018-05-05 09:00:00 10.1 14 Oeste 26 Oeste 0 -- -- 74
2018-05-05 08:00:00 8.7 13 Oeste 23 Oeste 0 -- -- 78
2018-05-05 07:00:00 8.4 10 Sudoeste 22 Oeste 0 -- -- 79
2018-05-05 06:00:00 8.8 8 Sudoeste 19 Oeste 0 -- -- 77
2018-05-05 05:00:00 9.3 10 Sudoeste 20 Sudoeste 0 -- -- 75
2018-05-05 04:00:00 9.3 12 Sudoeste 21 Sudoeste 0 -- -- 75
2018-05-05 03:00:00 9.4 9 Sudoeste 20 Sudoeste 0 -- -- 74
2018-05-05 02:00:00 9.5 12 Oeste 25 Oeste 0 -- -- 73
2018-05-05 01:00:00 9.7 10 Sudoeste 18 Sudoeste 0 -- -- 72
2018-05-05 00:00:00 9.5 6 Oeste 14 Noroeste 0 -- -- 70
2018-05-04 23:00:00 9.8 9 Oeste 17 Oeste 0 -- -- 68
2018-05-04 22:00:00 10.6 11 Oeste 21 Oeste 0 -- -- 67
2018-05-04 21:00:00 11.9 11 Noroeste 24 Noroeste 0 -- -- 59
2018-05-04 20:00:00 12.2 15 Noroeste 30 Noroeste 0 -- -- 63
2018-05-04 19:00:00 13.6 16 Noroeste 32 Oeste 0 -- -- 58
2018-05-04 18:00:00 14.9 15 Noroeste 34 Norte 0 -- -- 53
2018-05-04 17:00:00 14.5 14 Norte 35 Noroeste 0 -- -- 53
2018-05-04 16:00:00 14.6 18 Norte 36 Noroeste 0 -- -- 53
2018-05-04 15:00:00 14.6 19 Norte 34 Norte 0 -- -- 53
2018-05-04 14:00:00 13.7 11 Norte 29 Nordeste 0 -- -- 54
2018-05-04 13:00:00 13.3 14 Noroeste 31 Noroeste 0 -- -- 57
2018-05-04 12:00:00 11.6 10 Noroeste 22 Oeste 0 -- -- 64
2018-05-04 11:00:00 10 12 Oeste 26 Oeste 0 -- -- 72
2018-05-04 10:00:00 9.2 14 Oeste 30 Oeste 0 -- -- 72
2018-05-04 09:00:00 8.3 11 Oeste 29 Oeste 0 -- -- 73
2018-05-04 08:00:00 8 12 Oeste 23 Oeste 0 -- -- 73
2018-05-04 07:00:00 7.7 11 Oeste 23 Sudoeste 0 -- -- 73
2018-05-04 06:00:00 7.2 5 Oeste 17 Sudoeste 0 -- -- 72
2018-05-04 05:00:00 7.1 8 Oeste 16 Oeste 0 -- -- 72
2018-05-04 04:00:00 7.1 9 Oeste 18 Noroeste 0 -- -- 72
2018-05-04 03:00:00 7.7 14 Noroeste 22 Noroeste 0 -- -- 67
2018-05-04 02:00:00 7.7 5 Noroeste 25 Noroeste 0 -- -- 67
2018-05-04 01:00:00 8.4 11 Noroeste 28 Oeste 0 -- -- 64
2018-05-04 00:00:00 8.8 12 Noroeste 30 Noroeste 0 -- -- 66
2018-05-03 23:00:00 9 12 Noroeste 24 Noroeste 0 -- -- 63
2018-05-03 22:00:00 9.6 10 Noroeste 23 Noroeste 0 -- -- 61
2018-05-03 21:00:00 9.9 11 Noroeste 27 Noroeste 0 -- -- 58
2018-05-03 20:00:00 11.2 17 Noroeste 35 Noroeste 0 -- -- 53
2018-05-03 19:00:00 11.9 17 Noroeste 39 Noroeste 0 -- -- 51
2018-05-03 18:00:00 13.1 19 Noroeste 39 Noroeste 0 -- -- 50
2018-05-03 17:00:00 13.7 21 Noroeste 40 Noroeste 0 -- -- 46
2018-05-03 16:00:00 13.1 17 Noroeste 36 Noroeste 0 -- -- 49
2018-05-03 15:00:00 12.9 13 Norte 37 Noroeste 0 -- -- 46
2018-05-03 14:00:00 12.2 18 Noroeste 35 Noroeste 0 -- -- 51
2018-05-03 13:00:00 11.2 14 Noroeste 29 Oeste 0 -- -- 59
2018-05-03 12:00:00 9.6 12 Oeste 34 Oeste 0 -- -- 63
2018-05-03 11:00:00 9.5 19 Oeste 33 Oeste 0 -- -- 62
2018-05-03 10:00:00 9.6 13 Noroeste 28 Oeste 0 -- -- 70
2018-05-03 09:00:00 9.1 16 Noroeste 34 Noroeste 0 -- -- 72
2018-05-03 08:00:00 8.6 18 Noroeste 29 Noroeste 0 -- -- 71
2018-05-03 07:00:00 8.7 16 Noroeste 30 Noroeste 0 -- -- 75
2018-05-03 06:00:00 9.3 8 Noroeste 28 Sudoeste 0 -- -- 83
2018-05-03 05:00:00 9.7 10 Oeste 28 Oeste 0 -- -- 81
2018-05-03 04:00:00 10.6 12 Noroeste 26 Oeste 0 -- -- 83
2018-05-03 03:00:00 11.5 10 Oeste 18 Oeste 0.4 -- -- 92
2018-05-03 02:00:00 11.8 3 Noroeste 18 Oeste 0.6 -- -- 89
2018-05-03 01:00:00 12.1 11 Oeste 23 Oeste 0 -- -- 86
2018-05-03 00:00:00 12.1 9 Oeste 18 Oeste 0 -- -- 86
2018-05-02 23:00:00 12.3 5 Oeste 14 Sudoeste 0 -- -- 87
2018-05-02 22:00:00 12.8 9 Oeste 20 Sudoeste 0 -- -- 81
2018-05-02 21:00:00 13.4 10 Oeste 17 Noroeste 0 -- -- 76
2018-05-02 20:00:00 13.9 9 Noroeste 21 Oeste 0 -- -- 71
2018-05-02 19:00:00 14.6 11 Noroeste 29 Oeste 0 -- -- 68
2018-05-02 18:00:00 14.5 10 Noroeste 30 Noroeste 0 -- -- 69
2018-05-02 17:00:00 15.8 16 Noroeste 37 Oeste 0 -- -- 53
2018-05-02 16:00:00 15.8 17 Noroeste 41 Oeste 0 -- -- 50
2018-05-02 15:00:00 17.1 18 Oeste 37 Oeste 0 -- -- 44
2018-05-02 14:00:00 16.1 19 Oeste 41 Oeste 0 -- -- 45
2018-05-02 13:00:00 15.1 25 Noroeste 43 Noroeste 0 -- -- 45
2018-05-02 12:00:00 15 21 Oeste 41 Oeste 0 -- -- 40
2018-05-02 11:00:00 11.9 8 Oeste 15 Oeste 0 -- -- 57
2018-05-02 10:00:00 9.1 5 Oeste 9 Noroeste 0 -- -- 70
2018-05-02 09:00:00 7.1 2 Noroeste 5 Nordeste 0 -- -- 78
2018-05-02 08:00:00 4.9 2 Sudeste 4 Sudeste 0 -- -- 88
2018-05-02 07:00:00 4.7 2 Oeste 7 Oeste 0 -- -- 89
2018-05-02 06:00:00 5.1 0 Calma 3 Oeste 0 -- -- 85
2018-05-02 05:00:00 5.3 0 Calma 5 Este 0 -- -- 83
2018-05-02 04:00:00 6.1 0 Calma 4 Sudeste 0 -- -- 74
2018-05-02 03:00:00 6.7 2 Oeste 6 Este 0 -- -- 73
2018-05-02 02:00:00 7.3 2 Este 5 Nordeste 0 -- -- 71
2018-05-02 01:00:00 7.9 2 Sudeste 8 Este 0 -- -- 69
2018-05-02 00:00:00 8.7 3 Nordeste 8 Nordeste 0 -- -- 65
2018-05-01 23:00:00 10.3 5 Este 16 Este 0 -- -- 57
2018-05-01 22:00:00 11.3 0 Calma 4 Sudeste 0 -- -- 52
2018-05-01 21:00:00 13.3 3 Este 5 Norte 0 -- -- 41
2018-05-01 20:00:00 14.2 5 Norte 11 Noroeste 0 -- -- 39
2018-05-01 19:00:00 14.2 2 Norte 13 Noroeste 0 -- -- 39
2018-05-01 18:00:00 14.7 9 Oeste 22 Oeste 0 -- -- 38
2018-05-01 17:00:00 14.7 14 Noroeste 25 Oeste 0 -- -- 42
2018-05-01 16:00:00 14.9 13 Oeste 25 Oeste 0 -- -- 44
2018-05-01 15:00:00 13.4 13 Noroeste 23 Oeste 0 -- -- 46
2018-05-01 14:00:00 12.4 7 Oeste 23 Noroeste 0 -- -- 51
2018-05-01 13:00:00 13 8 Oeste 19 Oeste 0 -- -- 51
2018-05-01 12:00:00 10.6 8 Oeste 18 Oeste 0 -- -- 57
2018-05-01 11:00:00 9.4 9 Noroeste 19 Oeste 0 -- -- 63
2018-05-01 10:00:00 8.6 11 Oeste 21 Sudoeste 0 -- -- 68
2018-05-01 09:00:00 6.9 8 Oeste 21 Sudoeste 0 -- -- 76
2018-05-01 08:00:00 6.1 6 Oeste 15 Oeste 0 -- -- 79
2018-05-01 07:00:00 5.9 8 Oeste 19 Oeste 0 -- -- 79
2018-05-01 06:00:00 5.8 10 Oeste 22 Oeste 0 -- -- 79
2018-05-01 05:00:00 6.2 11 Oeste 21 Oeste 0 -- -- 79
2018-05-01 04:00:00 6.1 7 Oeste 16 Sudoeste 0 -- -- 81
2018-05-01 03:00:00 6.3 9 Oeste 16 Oeste 0 -- -- 79
2018-05-01 02:00:00 6.7 8 Oeste 15 Noroeste 0 -- -- 77
2018-05-01 01:00:00 7.1 10 Oeste 18 Oeste 0 -- -- 74
2018-05-01 00:00:00 7.3 14 Oeste 23 Oeste 0 -- -- 73
2018-04-30 23:00:00 7.3 10 Oeste 23 Noroeste 0 -- -- 74
2018-04-30 22:00:00 8.2 10 Noroeste 19 Oeste 0 -- -- 70
2018-04-30 21:00:00 8.9 12 Noroeste 25 Noroeste 0 -- -- 67
2018-04-30 20:00:00 9.3 14 Noroeste 28 Oeste 0 -- -- 65
2018-04-30 19:00:00 9.3 16 Noroeste 34 Oeste 0 -- -- 61
2018-04-30 18:00:00 10.7 17 Noroeste 36 Noroeste 0 -- -- 55
2018-04-30 17:00:00 12 21 Noroeste 37 Oeste 0 -- -- 46
2018-04-30 16:00:00 13 20 Oeste 39 Oeste 0 -- -- 42
2018-04-30 15:00:00 12.1 20 Noroeste 38 Oeste 0 -- -- 46
2018-04-30 14:00:00 11.3 18 Noroeste 33 Oeste 0 -- -- 49
2018-04-30 13:00:00 11.2 17 Noroeste 33 Noroeste 0 -- -- 52
2018-04-30 12:00:00 10.7 14 Noroeste 28 Noroeste 0 -- -- 57
2018-04-30 11:00:00 9.2 14 Noroeste 31 Noroeste 0 -- -- 61
2018-04-30 10:00:00 8.7 14 Oeste 27 Noroeste 0 -- -- 63
2018-04-30 09:00:00 7 6 Noroeste 28 Noroeste 0 -- -- 70
2018-04-30 08:00:00 4.6 0 Calma 8 Sudeste 0 -- -- 82
2018-04-30 07:00:00 4.9 3 Oeste 16 Oeste 0 -- -- 81
2018-04-30 06:00:00 5.4 9 Oeste 22 Oeste 0 -- -- 78
2018-04-30 05:00:00 6.1 11 Noroeste 29 Oeste 0 -- -- 75
2018-04-30 04:00:00 6.6 5 Oeste 19 Oeste 0 -- -- 76
2018-04-30 03:00:00 7.4 11 Oeste 19 Oeste 0 -- -- 74
2018-04-30 02:00:00 7.6 5 Oeste 18 Oeste 0 -- -- 76
2018-04-30 01:00:00 7.4 12 Oeste 26 Oeste 0 -- -- 80
2018-04-30 00:00:00 7.4 11 Oeste 37 Oeste 0.6 -- -- 83
2018-04-29 23:00:00 7.9 6 Sudoeste 18 Oeste 0 -- -- 80
2018-04-29 22:00:00 8.6 10 Oeste 26 Oeste 0.4 -- -- 76
2018-04-29 21:00:00 9.2 7 Noroeste 22 Sur 0 -- -- 75
2018-04-29 20:00:00 8.9 17 Oeste 61 Oeste 0.4 -- -- 76
2018-04-29 19:00:00 10.2 19 Oeste 48 Oeste 0.2 -- -- 71
2018-04-29 18:00:00 13.5 16 Oeste 39 Oeste 0 -- -- 54
2018-04-29 17:00:00 14.3 22 Oeste 41 Oeste 0 -- -- 59
2018-04-29 16:00:00 11.9 14 Oeste 24 Sudoeste 0 -- -- 71
2018-04-29 15:00:00 10.8 9 Oeste 18 Sudoeste 2 -- -- 75
2018-04-29 14:00:00 10.7 8 Oeste 24 Sudoeste 0.8 -- -- 75
2018-04-29 13:00:00 12.5 15 Oeste 28 Oeste 0 -- -- 67
2018-04-29 12:00:00 12.3 13 Noroeste 28 Oeste 0 -- -- 63
2018-04-29 11:00:00 11.6 16 Oeste 27 Oeste 0 -- -- 72
2018-04-29 10:00:00 9.4 6 Oeste 18 Oeste 0 -- -- 84
2018-04-29 09:00:00 8.7 7 Sudoeste 18 Sudoeste 0 -- -- 86
2018-04-29 08:00:00 8.2 3 Sudoeste 16 Oeste 0 -- -- 87
2018-04-29 07:00:00 8.1 8 Oeste 14 Sudoeste 0 -- -- 89
2018-04-29 06:00:00 8 8 Oeste 15 Oeste 0 -- -- 89
2018-04-29 05:00:00 7.3 3 Sudoeste 14 Oeste 0 -- -- 93
2018-04-29 04:00:00 7.5 4 Oeste 13 Noroeste 0 -- -- 93
2018-04-29 03:00:00 8.3 3 Norte 9 Sudoeste 0 -- -- 90
2018-04-29 02:00:00 8.6 5 Sudoeste 14 Sur 0 -- -- 88
2018-04-29 01:00:00 9 5 Sudoeste 12 Sudoeste 0 -- -- 86
2018-04-29 00:00:00 9.8 4 Oeste 17 Sudoeste 0 -- -- 84
2018-04-28 23:00:00 10.4 7 Oeste 26 Oeste 0 -- -- 81
2018-04-28 22:00:00 11.8 10 Oeste 24 Oeste 0 -- -- 77
2018-04-28 21:00:00 13 14 Oeste 26 Oeste 0 -- -- 70
2018-04-28 20:00:00 14.4 15 Oeste 29 Oeste 0 -- -- 67
2018-04-28 19:00:00 15.4 13 Oeste 28 Oeste 0 -- -- 66
2018-04-28 18:00:00 15.3 16 Noroeste 28 Oeste 0 -- -- 66
2018-04-28 17:00:00 15.1 17 Oeste 30 Oeste 0 -- -- 66
2018-04-28 16:00:00 14.4 15 Oeste 26 Oeste 0.2 -- -- 69
2018-04-28 15:00:00 14.7 2 Sudoeste 14 Nordeste 0 -- -- 65
2018-04-28 14:00:00 14.5 9 Este 20 Este 0 -- -- 64
2018-04-28 13:00:00 14.1 10 Este 21 Este 0 -- -- 64
2018-04-28 12:00:00 13.3 7 Este 16 Este 0 -- -- 66
2018-04-28 11:00:00 11.6 6 Este 14 Este 0 -- -- 70
2018-04-28 10:00:00 9.8 0 Calma 4 Sudeste 0 -- -- 83
2018-04-28 09:00:00 9.2 3 Noroeste 4 Noroeste 0 -- -- 86
2018-04-28 08:00:00 8.8 0 Calma 7 Oeste 0 -- -- 87
2018-04-28 07:00:00 8.8 2 Oeste 8 Sur 0 -- -- 88
2018-04-28 06:00:00 8.7 3 Oeste 9 Sudoeste 0 -- -- 88
2018-04-28 05:00:00 8.9 5 Sudoeste 16 Sudoeste 0.2 -- -- 88
2018-04-28 04:00:00 9.4 7 Sudoeste 27 Sudoeste 0.4 -- -- 85
2018-04-28 03:00:00 10.2 10 Sudoeste 22 Sudoeste 0 -- -- 72
2018-04-28 02:00:00 10.7 5 Oeste 16 Oeste 0 -- -- 69
2018-04-28 01:00:00 11.1 6 Sudoeste 15 Sur 0 -- -- 71
2018-04-28 00:00:00 10.9 10 Oeste 22 Noroeste 0 -- -- 72
2018-04-27 23:00:00 11 9 Noroeste 15 Noroeste 0 -- -- 72
2018-04-27 22:00:00 12.2 4 Oeste 8 Norte 0 -- -- 69
2018-04-27 21:00:00 12.8 5 Noroeste 23 Norte 0 -- -- 68
2018-04-27 20:00:00 14.2 10 Norte 22 Norte 0 -- -- 63
2018-04-27 19:00:00 16.4 11 Norte 24 Nordeste 0 -- -- 57
2018-04-27 18:00:00 19.8 11 Noroeste 23 Norte 0 -- -- 48
2018-04-27 17:00:00 20.1 10 Norte 22 Nordeste 0 -- -- 47
2018-04-27 16:00:00 23 9 Oeste 18 Oeste 0 -- -- 37
2018-04-27 15:00:00 22.1 9 Oeste 21 Oeste 0 -- -- 37
2018-04-27 14:00:00 20.9 4 Oeste 15 Oeste 0 -- -- 47
2018-04-27 13:00:00 19.5 3 Este 12 Oeste 0 -- -- 50
2018-04-27 12:00:00 17.1 5 Oeste 10 Oeste 0 -- -- 59
2018-04-27 11:00:00 14.1 4 Noroeste 10 Oeste 0 -- -- 72
2018-04-27 10:00:00 12.4 7 Noroeste 14 Noroeste 0 -- -- 78
2018-04-27 09:00:00 11.8 5 Oeste 14 Oeste 0 -- -- 81
2018-04-27 08:00:00 9.5 5 Oeste 9 Oeste 0 -- -- 90
2018-04-27 07:00:00 9.7 0 Calma 8 Nordeste 0 -- -- 87
2018-04-27 06:00:00 9.6 5 Nordeste 9 Nordeste 0 -- -- 89
2018-04-27 05:00:00 9.5 2 Oeste 10 Noroeste 0 -- -- 90
2018-04-27 04:00:00 9.8 4 Noroeste 8 Noroeste 0 -- -- 89
2018-04-27 03:00:00 9.5 4 Noroeste 10 Oeste 0 -- -- 86
2018-04-27 02:00:00 10.3 0 Calma 9 Sudoeste 0 -- -- 82
2018-04-27 01:00:00 11.3 2 Oeste 8 Oeste 0 -- -- 77
2018-04-27 00:00:00 12.4 3 Oeste 10 Sudoeste 0 -- -- 73
2018-04-26 23:00:00 13.5 0 Calma 14 Oeste 0 -- -- 68
2018-04-26 22:00:00 14.9 6 Sudoeste 16 Oeste 0 -- -- 60
2018-04-26 21:00:00 16.4 10 Oeste 20 Oeste 0 -- -- 55
2018-04-26 20:00:00 18.2 12 Oeste 21 Oeste 0 -- -- 50
2018-04-26 19:00:00 19.6 12 Oeste 22 Sudoeste 0 -- -- 45
2018-04-26 18:00:00 19.6 13 Oeste 24 Oeste 0 -- -- 45
2018-04-26 17:00:00 19.2 15 Oeste 24 Oeste 0 -- -- 45
2018-04-26 16:00:00 18.5 14 Oeste 26 Oeste 0 -- -- 48
2018-04-26 15:00:00 17.9 15 Oeste 25 Oeste 0 -- -- 47
2018-04-26 14:00:00 16.3 13 Oeste 25 Oeste 0 -- -- 50
2018-04-26 13:00:00 15 13 Oeste 24 Oeste 0 -- -- 49
2018-04-26 12:00:00 14.7 7 Noroeste 22 Oeste 0 -- -- 54
2018-04-26 11:00:00 13.7 11 Oeste 19 Oeste 0 -- -- 55
2018-04-26 10:00:00 11.3 8 Oeste 21 Oeste 0 -- -- 67
2018-04-26 09:00:00 11 8 Oeste 18 Oeste 0 -- -- 69
2018-04-26 08:00:00 10.9 8 Noroeste 15 Oeste 0 -- -- 73
2018-04-26 07:00:00 11.2 6 Oeste 13 Noroeste 0 -- -- 71
2018-04-26 06:00:00 11.3 8 Noroeste 17 Oeste 0 -- -- 75
2018-04-26 05:00:00 11.2 5 Noroeste 16 Oeste 0 -- -- 81
2018-04-26 04:00:00 11.9 7 Noroeste 15 Oeste 0 -- -- 77
2018-04-26 03:00:00 12.2 8 Noroeste 17 Oeste 0 -- -- 73
2018-04-26 02:00:00 12.1 9 Oeste 17 Oeste 0 -- -- 83
2018-04-26 01:00:00 12.1 10 Oeste 20 Oeste 0 -- -- 84
2018-04-26 00:00:00 12.2 9 Oeste 22 Oeste 0 -- -- 81
2018-04-25 23:00:00 12.5 12 Oeste 21 Oeste 0 -- -- 79
2018-04-25 22:00:00 13 12 Oeste 19 Oeste 0 -- -- 75
2018-04-25 21:00:00 13.2 11 Oeste 26 Noroeste 0 -- -- 73
2018-04-25 20:00:00 13.5 14 Noroeste 30 Norte 0 -- -- 73
2018-04-25 19:00:00 14.2 14 Norte 29 Norte 0 -- -- 67
2018-04-25 18:00:00 15.8 10 Norte 26 Oeste 0 -- -- 70
2018-04-25 17:00:00 16.7 10 Noroeste 27 Oeste 0 -- -- 69
2018-04-25 16:00:00 17.6 9 Noroeste 26 Oeste 0 -- -- 66
2018-04-25 15:00:00 18.6 13 Oeste 26 Oeste 0 -- -- 63
2018-04-25 14:00:00 18.6 13 Oeste 24 Sudoeste 0 -- -- 65
2018-04-25 13:00:00 18 12 Oeste 20 Oeste 0 -- -- 67
2018-04-25 12:00:00 17.9 10 Oeste 23 Oeste 0 -- -- 69
2018-04-25 11:00:00 17.6 13 Oeste 22 Sudoeste 0 -- -- 70
2018-04-25 10:00:00 15.8 6 Noroeste 18 Sudoeste 0 -- -- 83
2018-04-25 09:00:00 14.9 6 Oeste 16 Oeste 0 -- -- 84
2018-04-25 08:00:00 13.4 8 Oeste 15 Oeste 0 -- -- 89
2018-04-25 07:00:00 13.2 8 Sudoeste 20 Sudoeste 0 -- -- 91
2018-04-25 06:00:00 13.4 9 Sudoeste 18 Sudoeste 0 -- -- 90
2018-04-25 05:00:00 13.6 8 Sudoeste 15 Sudoeste 0 -- -- 88
2018-04-25 04:00:00 13.9 7 Sudoeste 14 Sur 0 -- -- 85
2018-04-25 03:00:00 14 2 Sudoeste 8 Oeste 0 -- -- 81
2018-04-25 02:00:00 15.1 2 Oeste 5 Noroeste 0 -- -- 77
2018-04-25 01:00:00 16 3 Oeste 9 Sudoeste 0 -- -- 71
2018-04-25 00:00:00 17.5 3 Sudoeste 5 Sudoeste 0 -- -- 65
2018-04-24 23:00:00 19.2 5 Sudeste 9 Este 0 -- -- 59
2018-04-24 22:00:00 20.6 0 Calma 17 Este 0 -- -- 51
2018-04-24 21:00:00 22.4 10 Este 21 Este 0 -- -- 40
2018-04-24 20:00:00 23.8 12 Este 27 Este 0 -- -- 37
2018-04-24 19:00:00 24.7 14 Este 28 Este 0 -- -- 37
2018-04-24 18:00:00 25 16 Este 28 Sudeste 0 -- -- 39
2018-04-24 17:00:00 24.7 18 Este 34 Este 0 -- -- 41
2018-04-24 16:00:00 24.3 15 Este 33 Este 0 -- -- 45
2018-04-24 15:00:00 23.4 16 Este 33 Este 0 -- -- 47
2018-04-24 14:00:00 22 15 Este 28 Este 0 -- -- 55
2018-04-24 13:00:00 20.1 12 Este 26 Sudeste 0 -- -- 61
2018-04-24 12:00:00 17.6 8 Este 18 Este 0 -- -- 72
2018-04-24 11:00:00 15 4 Este 8 Este 0 -- -- 84
2018-04-24 10:00:00 12.4 2 Norte 4 Norte 0 -- -- 98
2018-04-24 09:00:00 11.2 0 Calma 4 Noroeste 0 -- -- 97
2018-04-24 08:00:00 10.2 0 Calma 4 Sudoeste 0 -- -- 97
2018-04-24 07:00:00 9.7 0 Calma 3 Oeste 0 -- -- 95
2018-04-24 06:00:00 10.3 3 Oeste 4 Oeste 0 -- -- 95
2018-04-24 05:00:00 10.6 3 Sudoeste 6 Sudoeste 0 -- -- 93
2018-04-24 04:00:00 11.3 0 Calma 4 Sudoeste 0 -- -- 92
2018-04-24 03:00:00 12.1 2 Sudoeste 4 Sudoeste 0 -- -- 88
2018-04-24 02:00:00 13.1 0 Calma 3 Oeste 0 -- -- 86
2018-04-24 01:00:00 14.1 0 Calma 6 Sur 0 -- -- 83
2018-04-24 00:00:00 15.2 2 Sur 18 Sudeste 0 -- -- 79